sensor_id;sensor_type;location;lat;lon;timestamp;pressure;altitude;pressure_sealevel;temperature;humidity
55517;BME280;41724;51.176;-0.708;2022-08-19T00:02:04;100895.97;;;22.48;63.54
55517;BME280;41724;51.176;-0.708;2022-08-19T00:04:33;100894.01;;;22.63;63.64
55517;BME280;41724;51.176;-0.708;2022-08-19T00:07:02;100892.00;;;23.84;60.23
55517;BME280;41724;51.176;-0.708;2022-08-19T00:09:30;100895.52;;;22.88;62.69
55517;BME280;41724;51.176;-0.708;2022-08-19T00:11:58;100893.96;;;22.94;62.04
55517;BME280;41724;51.176;-0.708;2022-08-19T00:14:27;100889.26;;;23.19;61.02
55517;BME280;41724;51.176;-0.708;2022-08-19T00:16:54;100879.89;;;23.70;61.11
55517;BME280;41724;51.176;-0.708;2022-08-19T00:19:23;100886.07;;;23.07;62.84
55517;BME280;41724;51.176;-0.708;2022-08-19T00:21:50;100882.09;;;22.21;64.97
55517;BME280;41724;51.176;-0.708;2022-08-19T00:24:17;100880.06;;;23.28;63.15
55517;BME280;41724;51.176;-0.708;2022-08-19T00:26:45;100880.92;;;22.88;63.45
55517;BME280;41724;51.176;-0.708;2022-08-19T00:29:16;100879.34;;;22.62;63.45
55517;BME280;41724;51.176;-0.708;2022-08-19T00:31:45;100874.68;;;23.35;61.27
55517;BME280;41724;51.176;-0.708;2022-08-19T00:34:13;100873.32;;;23.22;62.43
55517;BME280;41724;51.176;-0.708;2022-08-19T00:36:42;100872.84;;;22.74;63.54
55517;BME280;41724;51.176;-0.708;2022-08-19T00:39:10;100872.34;;;22.93;61.94
55517;BME280;41724;51.176;-0.708;2022-08-19T00:41:37;100873.26;;;23.15;62.23
55517;BME280;41724;51.176;-0.708;2022-08-19T00:44:13;100865.26;;;23.48;60.57
55517;BME280;41724;51.176;-0.708;2022-08-19T00:46:44;100868.25;;;23.51;59.91
55517;BME280;41724;51.176;-0.708;2022-08-19T00:49:15;100867.93;;;22.90;62.28
55517;BME280;41724;51.176;-0.708;2022-08-19T00:51:45;100858.77;;;23.65;60.09
55517;BME280;41724;51.176;-0.708;2022-08-19T00:54:14;100850.85;;;24.05;59.09
55517;BME280;41724;51.176;-0.708;2022-08-19T00:56:42;100847.44;;;23.96;58.63
55517;BME280;41724;51.176;-0.708;2022-08-19T00:59:10;100843.86;;;23.80;58.99
55517;BME280;41724;51.176;-0.708;2022-08-19T01:01:39;100840.46;;;24.01;58.50
55517;BME280;41724;51.176;-0.708;2022-08-19T01:04:07;100840.57;;;24.48;58.02
55517;BME280;41724;51.176;-0.708;2022-08-19T01:06:36;100840.91;;;24.54;56.65
55517;BME280;41724;51.176;-0.708;2022-08-19T01:09:05;100845.89;;;25.03;55.36
55517;BME280;41724;51.176;-0.708;2022-08-19T01:11:35;100848.08;;;24.58;56.08
55517;BME280;41724;51.176;-0.708;2022-08-19T01:14:03;100851.90;;;24.55;56.09
55517;BME280;41724;51.176;-0.708;2022-08-19T01:16:32;100850.84;;;24.55;55.91
55517;BME280;41724;51.176;-0.708;2022-08-19T01:19:01;100851.65;;;24.47;55.98
55517;BME280;41724;51.176;-0.708;2022-08-19T01:21:33;100850.26;;;25.03;55.38
55517;BME280;41724;51.176;-0.708;2022-08-19T01:24:01;100849.17;;;24.97;54.96
55517;BME280;41724;51.176;-0.708;2022-08-19T01:26:28;100847.41;;;25.11;54.82
55517;BME280;41724;51.176;-0.708;2022-08-19T01:28:57;100846.50;;;24.50;56.51
55517;BME280;41724;51.176;-0.708;2022-08-19T01:31:28;100848.26;;;24.81;55.46
55517;BME280;41724;51.176;-0.708;2022-08-19T01:33:57;100852.87;;;25.02;55.09
55517;BME280;41724;51.176;-0.708;2022-08-19T01:36:29;100854.51;;;25.23;54.76
55517;BME280;41724;51.176;-0.708;2022-08-19T01:38:57;100857.85;;;24.87;54.91
55517;BME280;41724;51.176;-0.708;2022-08-19T01:41:25;100856.04;;;24.99;55.06
55517;BME280;41724;51.176;-0.708;2022-08-19T01:43:53;100852.97;;;24.82;55.05
55517;BME280;41724;51.176;-0.708;2022-08-19T01:46:21;100847.15;;;24.87;54.60
55517;BME280;41724;51.176;-0.708;2022-08-19T01:48:49;100844.47;;;24.68;55.53
55517;BME280;41724;51.176;-0.708;2022-08-19T01:51:16;100848.13;;;24.48;56.06
55517;BME280;41724;51.176;-0.708;2022-08-19T01:53:47;100846.66;;;24.84;55.13
55517;BME280;41724;51.176;-0.708;2022-08-19T01:56:15;100845.55;;;24.79;55.24
55517;BME280;41724;51.176;-0.708;2022-08-19T01:58:50;100845.41;;;24.32;56.21
55517;BME280;41724;51.176;-0.708;2022-08-19T02:01:18;100844.51;;;25.14;54.54
55517;BME280;41724;51.176;-0.708;2022-08-19T02:03:45;100849.06;;;25.16;54.55
55517;BME280;41724;51.176;-0.708;2022-08-19T02:06:13;100849.12;;;25.15;55.63
55517;BME280;41724;51.176;-0.708;2022-08-19T02:08:40;100846.47;;;24.70;55.61
55517;BME280;41724;51.176;-0.708;2022-08-19T02:11:08;100847.86;;;25.08;54.70
55517;BME280;41724;51.176;-0.708;2022-08-19T02:13:35;100848.92;;;25.33;54.54
55517;BME280;41724;51.176;-0.708;2022-08-19T02:16:02;100852.48;;;25.18;54.00
55517;BME280;41724;51.176;-0.708;2022-08-19T02:18:29;100857.03;;;25.38;53.75
55517;BME280;41724;51.176;-0.708;2022-08-19T02:20:57;100858.14;;;25.36;54.21
55517;BME280;41724;51.176;-0.708;2022-08-19T02:23:24;100856.37;;;25.14;54.13
55517;BME280;41724;51.176;-0.708;2022-08-19T02:25:51;100853.14;;;24.92;54.72
55517;BME280;41724;51.176;-0.708;2022-08-19T02:28:18;100853.62;;;24.74;55.25
55517;BME280;41724;51.176;-0.708;2022-08-19T02:30:47;100855.13;;;24.92;55.06
55517;BME280;41724;51.176;-0.708;2022-08-19T02:33:15;100856.16;;;25.15;54.60
55517;BME280;41724;51.176;-0.708;2022-08-19T02:35:43;100857.02;;;24.84;54.69
55517;BME280;41724;51.176;-0.708;2022-08-19T02:38:10;100857.62;;;24.98;54.98
55517;BME280;41724;51.176;-0.708;2022-08-19T02:40:37;100858.70;;;24.11;57.38
55517;BME280;41724;51.176;-0.708;2022-08-19T02:43:06;100858.24;;;24.13;57.80
55517;BME280;41724;51.176;-0.708;2022-08-19T02:45:35;100860.03;;;24.20;58.40
55517;BME280;41724;51.176;-0.708;2022-08-19T02:48:03;100860.76;;;24.21;58.65
55517;BME280;41724;51.176;-0.708;2022-08-19T02:50:30;100866.26;;;23.78;58.85
55517;BME280;41724;51.176;-0.708;2022-08-19T02:52:58;100863.16;;;23.61;59.61
55517;BME280;41724;51.176;-0.708;2022-08-19T02:55:25;100863.36;;;24.45;58.49
55517;BME280;41724;51.176;-0.708;2022-08-19T02:57:52;100862.19;;;23.67;60.64
55517;BME280;41724;51.176;-0.708;2022-08-19T03:00:20;100865.51;;;23.93;59.49
55517;BME280;41724;51.176;-0.708;2022-08-19T03:02:47;100864.99;;;23.67;60.41
55517;BME280;41724;51.176;-0.708;2022-08-19T03:05:14;100862.16;;;24.20;59.57
55517;BME280;41724;51.176;-0.708;2022-08-19T03:07:41;100865.63;;;24.11;58.75
55517;BME280;41724;51.176;-0.708;2022-08-19T03:10:08;100869.84;;;24.11;58.78
55517;BME280;41724;51.176;-0.708;2022-08-19T03:12:37;100872.03;;;23.43;61.14
55517;BME280;41724;51.176;-0.708;2022-08-19T03:15:06;100875.36;;;22.96;62.44
55517;BME280;41724;51.176;-0.708;2022-08-19T03:17:34;100873.24;;;22.60;64.81
55517;BME280;41724;51.176;-0.708;2022-08-19T03:20:03;100873.79;;;23.01;62.80
55517;BME280;41724;51.176;-0.708;2022-08-19T03:22:30;100878.02;;;23.41;62.88
55517;BME280;41724;51.176;-0.708;2022-08-19T03:24:58;100873.99;;;23.45;62.30
55517;BME280;41724;51.176;-0.708;2022-08-19T03:27:25;100884.02;;;23.23;64.44
55517;BME280;41724;51.176;-0.708;2022-08-19T03:29:52;100886.49;;;23.02;65.61
55517;BME280;41724;51.176;-0.708;2022-08-19T03:32:19;100882.72;;;22.75;66.25
55517;BME280;41724;51.176;-0.708;2022-08-19T03:34:47;100885.97;;;21.82;69.59
55517;BME280;41724;51.176;-0.708;2022-08-19T03:37:15;100884.94;;;22.15;69.13
55517;BME280;41724;51.176;-0.708;2022-08-19T03:39:42;100882.01;;;21.64;69.49
55517;BME280;41724;51.176;-0.708;2022-08-19T03:42:10;100876.29;;;22.07;68.45
55517;BME280;41724;51.176;-0.708;2022-08-19T03:44:37;100874.27;;;22.39;68.25
55517;BME280;41724;51.176;-0.708;2022-08-19T03:47:05;100875.40;;;22.47;67.04
55517;BME280;41724;51.176;-0.708;2022-08-19T03:49:32;100873.74;;;23.14;65.40
55517;BME280;41724;51.176;-0.708;2022-08-19T03:52:00;100878.84;;;22.95;65.95
55517;BME280;41724;51.176;-0.708;2022-08-19T03:54:28;100884.40;;;22.96;64.85
55517;BME280;41724;51.176;-0.708;2022-08-19T03:56:56;100878.67;;;22.36;66.99
55517;BME280;41724;51.176;-0.708;2022-08-19T03:59:27;100887.16;;;21.48;70.98
55517;BME280;41724;51.176;-0.708;2022-08-19T04:01:56;100895.07;;;21.31;71.59
55517;BME280;41724;51.176;-0.708;2022-08-19T04:04:24;100896.03;;;21.83;69.70
55517;BME280;41724;51.176;-0.708;2022-08-19T04:06:52;100902.34;;;20.81;73.94
55517;BME280;41724;51.176;-0.708;2022-08-19T04:09:20;100900.97;;;20.50;75.99
55517;BME280;41724;51.176;-0.708;2022-08-19T04:11:50;100902.20;;;20.74;76.49
55517;BME280;41724;51.176;-0.708;2022-08-19T04:14:23;100901.35;;;21.45;74.31
55517;BME280;41724;51.176;-0.708;2022-08-19T04:16:52;100894.13;;;22.13;70.73
55517;BME280;41724;51.176;-0.708;2022-08-19T04:19:20;100888.68;;;22.41;68.74
55517;BME280;41724;51.176;-0.708;2022-08-19T04:21:49;100886.02;;;22.68;66.88
55517;BME280;41724;51.176;-0.708;2022-08-19T04:24:18;100888.09;;;22.38;66.47
55517;BME280;41724;51.176;-0.708;2022-08-19T04:26:46;100887.58;;;22.79;65.51
55517;BME280;41724;51.176;-0.708;2022-08-19T04:29:16;100891.03;;;22.63;66.14
55517;BME280;41724;51.176;-0.708;2022-08-19T04:31:44;100895.98;;;22.11;66.75
55517;BME280;41724;51.176;-0.708;2022-08-19T04:34:13;100897.72;;;22.08;67.77
55517;BME280;41724;51.176;-0.708;2022-08-19T04:36:43;100895.93;;;22.76;66.39
55517;BME280;41724;51.176;-0.708;2022-08-19T04:39:14;100896.37;;;22.77;65.63
55517;BME280;41724;51.176;-0.708;2022-08-19T04:41:42;100903.76;;;23.57;63.62
55517;BME280;41724;51.176;-0.708;2022-08-19T04:44:09;100907.98;;;23.31;62.91
55517;BME280;41724;51.176;-0.708;2022-08-19T04:46:37;100909.56;;;23.71;61.79
55517;BME280;41724;51.176;-0.708;2022-08-19T04:49:06;100912.55;;;23.74;61.18
55517;BME280;41724;51.176;-0.708;2022-08-19T04:51:34;100912.08;;;23.67;61.63
55517;BME280;41724;51.176;-0.708;2022-08-19T04:54:02;100916.20;;;23.80;61.26
55517;BME280;41724;51.176;-0.708;2022-08-19T04:56:30;100922.30;;;23.78;61.02
55517;BME280;41724;51.176;-0.708;2022-08-19T04:58:58;100922.63;;;23.76;61.12
55517;BME280;41724;51.176;-0.708;2022-08-19T05:01:27;100929.10;;;23.82;61.17
55517;BME280;41724;51.176;-0.708;2022-08-19T05:03:55;100935.79;;;24.13;60.57
55517;BME280;41724;51.176;-0.708;2022-08-19T05:06:23;100938.63;;;24.18;60.56
55517;BME280;41724;51.176;-0.708;2022-08-19T05:08:51;100935.08;;;24.28;60.67
55517;BME280;41724;51.176;-0.708;2022-08-19T05:11:21;100935.97;;;24.23;59.88
55517;BME280;41724;51.176;-0.708;2022-08-19T05:13:49;100933.34;;;24.33;59.52
55517;BME280;41724;51.176;-0.708;2022-08-19T05:16:19;100932.76;;;24.50;60.23
55517;BME280;41724;51.176;-0.708;2022-08-19T05:18:46;100938.84;;;24.38;59.92
55517;BME280;41724;51.176;-0.708;2022-08-19T05:21:16;100944.50;;;24.77;59.20
55517;BME280;41724;51.176;-0.708;2022-08-19T05:23:43;100945.64;;;24.56;59.45
55517;BME280;41724;51.176;-0.708;2022-08-19T05:26:11;100943.54;;;24.67;58.70
55517;BME280;41724;51.176;-0.708;2022-08-19T05:28:38;100942.74;;;24.67;58.79
55517;BME280;41724;51.176;-0.708;2022-08-19T05:31:05;100941.19;;;24.49;59.12
55517;BME280;41724;51.176;-0.708;2022-08-19T05:33:33;100943.56;;;24.47;58.75
55517;BME280;41724;51.176;-0.708;2022-08-19T05:36:02;100945.94;;;24.08;59.34
55517;BME280;41724;51.176;-0.708;2022-08-19T05:38:30;100941.17;;;24.26;59.35
55517;BME280;41724;51.176;-0.708;2022-08-19T05:40:57;100941.33;;;22.75;62.18
55517;BME280;41724;51.176;-0.708;2022-08-19T05:43:24;100938.63;;;22.56;63.87
55517;BME280;41724;51.176;-0.708;2022-08-19T05:45:51;100931.49;;;22.08;63.91
55517;BME280;41724;51.176;-0.708;2022-08-19T05:48:19;100934.27;;;21.87;63.90
55517;BME280;41724;51.176;-0.708;2022-08-19T05:50:46;100942.09;;;22.80;63.50
55517;BME280;41724;51.176;-0.708;2022-08-19T05:53:13;100944.60;;;22.54;63.19
55517;BME280;41724;51.176;-0.708;2022-08-19T05:55:40;100950.65;;;22.62;62.61
55517;BME280;41724;51.176;-0.708;2022-08-19T05:58:08;100962.68;;;22.96;62.05
55517;BME280;41724;51.176;-0.708;2022-08-19T06:00:35;100966.04;;;22.40;63.07
55517;BME280;41724;51.176;-0.708;2022-08-19T06:03:03;100975.65;;;21.84;64.87
55517;BME280;41724;51.176;-0.708;2022-08-19T06:05:30;100982.80;;;22.19;65.36
55517;BME280;41724;51.176;-0.708;2022-08-19T06:07:58;100980.47;;;22.10;64.87
55517;BME280;41724;51.176;-0.708;2022-08-19T06:10:26;100979.96;;;22.57;62.70
55517;BME280;41724;51.176;-0.708;2022-08-19T06:12:53;100975.77;;;22.97;62.22
55517;BME280;41724;51.176;-0.708;2022-08-19T06:15:20;100971.23;;;22.73;62.15
55517;BME280;41724;51.176;-0.708;2022-08-19T06:17:47;100963.19;;;23.34;60.60
55517;BME280;41724;51.176;-0.708;2022-08-19T06:20:15;100964.07;;;23.80;59.26
55517;BME280;41724;51.176;-0.708;2022-08-19T06:22:43;100970.32;;;23.61;59.34
55517;BME280;41724;51.176;-0.708;2022-08-19T06:25:12;100972.56;;;23.76;59.53
55517;BME280;41724;51.176;-0.708;2022-08-19T06:27:40;100973.01;;;23.71;59.48
55517;BME280;41724;51.176;-0.708;2022-08-19T06:30:09;100972.80;;;23.94;60.08
55517;BME280;41724;51.176;-0.708;2022-08-19T06:32:36;100969.88;;;24.06;58.75
55517;BME280;41724;51.176;-0.708;2022-08-19T06:35:04;100970.34;;;24.06;58.69
55517;BME280;41724;51.176;-0.708;2022-08-19T06:37:31;100963.52;;;24.20;59.04
55517;BME280;41724;51.176;-0.708;2022-08-19T06:39:58;100966.64;;;24.29;58.43
55517;BME280;41724;51.176;-0.708;2022-08-19T06:42:25;100971.90;;;24.24;59.07
55517;BME280;41724;51.176;-0.708;2022-08-19T06:44:53;100970.14;;;24.35;58.25
55517;BME280;41724;51.176;-0.708;2022-08-19T06:47:21;100977.35;;;24.15;58.38
55517;BME280;41724;51.176;-0.708;2022-08-19T06:49:48;100973.20;;;23.83;58.75
55517;BME280;41724;51.176;-0.708;2022-08-19T06:52:15;100971.88;;;23.81;58.67
55517;BME280;41724;51.176;-0.708;2022-08-19T06:54:43;100973.19;;;23.91;58.74
55517;BME280;41724;51.176;-0.708;2022-08-19T06:57:10;100974.10;;;23.45;59.20
55517;BME280;41724;51.176;-0.708;2022-08-19T06:59:37;100980.25;;;23.68;59.12
55517;BME280;41724;51.176;-0.708;2022-08-19T07:02:05;100979.22;;;23.61;57.45
55517;BME280;41724;51.176;-0.708;2022-08-19T07:04:36;100979.37;;;24.10;58.28
55517;BME280;41724;51.176;-0.708;2022-08-19T07:07:08;100984.03;;;24.01;58.28
55517;BME280;41724;51.176;-0.708;2022-08-19T07:09:37;100980.31;;;24.12;58.34
55517;BME280;41724;51.176;-0.708;2022-08-19T07:12:05;100986.41;;;23.63;58.37
55517;BME280;41724;51.176;-0.708;2022-08-19T07:14:33;100989.84;;;24.00;58.30
55517;BME280;41724;51.176;-0.708;2022-08-19T07:17:01;100983.46;;;24.44;57.76
55517;BME280;41724;51.176;-0.708;2022-08-19T07:19:29;100985.88;;;23.47;58.57
55517;BME280;41724;51.176;-0.708;2022-08-19T07:21:57;100983.23;;;23.25;59.44
55517;BME280;41724;51.176;-0.708;2022-08-19T07:24:25;100986.78;;;23.95;58.14
55517;BME280;41724;51.176;-0.708;2022-08-19T07:26:55;100985.54;;;23.75;57.79
55517;BME280;41724;51.176;-0.708;2022-08-19T07:29:23;100987.79;;;23.48;58.61
55517;BME280;41724;51.176;-0.708;2022-08-19T07:31:51;100985.05;;;23.68;59.93
55517;BME280;41724;51.176;-0.708;2022-08-19T07:34:18;100982.44;;;23.85;58.59
55517;BME280;41724;51.176;-0.708;2022-08-19T07:36:46;100982.00;;;24.36;58.35
55517;BME280;41724;51.176;-0.708;2022-08-19T07:39:16;100986.06;;;24.23;57.25
55517;BME280;41724;51.176;-0.708;2022-08-19T07:41:44;100984.41;;;23.37;57.89
55517;BME280;41724;51.176;-0.708;2022-08-19T07:44:12;100986.86;;;23.35;59.45
55517;BME280;41724;51.176;-0.708;2022-08-19T07:46:42;100989.22;;;23.10;59.46
55517;BME280;41724;51.176;-0.708;2022-08-19T07:49:10;100991.11;;;23.22;60.98
55517;BME280;41724;51.176;-0.708;2022-08-19T07:51:38;101001.35;;;22.93;61.52
55517;BME280;41724;51.176;-0.708;2022-08-19T07:54:05;100997.89;;;23.40;59.32
55517;BME280;41724;51.176;-0.708;2022-08-19T07:56:32;101000.15;;;23.29;58.71
55517;BME280;41724;51.176;-0.708;2022-08-19T07:58:59;101007.29;;;24.13;58.43
55517;BME280;41724;51.176;-0.708;2022-08-19T08:01:27;101009.28;;;23.71;58.34
55517;BME280;41724;51.176;-0.708;2022-08-19T08:03:56;101009.68;;;23.68;58.55
55517;BME280;41724;51.176;-0.708;2022-08-19T08:06:24;101009.28;;;23.97;58.42
55517;BME280;41724;51.176;-0.708;2022-08-19T08:08:51;101006.64;;;24.15;56.54
55517;BME280;41724;51.176;-0.708;2022-08-19T08:11:19;101006.80;;;24.26;56.78
55517;BME280;41724;51.176;-0.708;2022-08-19T08:13:48;101007.36;;;25.03;55.98
55517;BME280;41724;51.176;-0.708;2022-08-19T08:16:15;101008.69;;;24.66;55.61
55517;BME280;41724;51.176;-0.708;2022-08-19T08:18:42;101015.71;;;24.72;57.46
55517;BME280;41724;51.176;-0.708;2022-08-19T08:21:09;101018.00;;;23.58;55.85
55517;BME280;41724;51.176;-0.708;2022-08-19T08:23:37;101021.37;;;23.49;56.90
55517;BME280;41724;51.176;-0.708;2022-08-19T08:26:04;101020.52;;;23.63;54.67
55517;BME280;41724;51.176;-0.708;2022-08-19T08:28:31;101018.52;;;23.59;54.44
55517;BME280;41724;51.176;-0.708;2022-08-19T08:30:59;101020.04;;;23.80;55.08
55517;BME280;41724;51.176;-0.708;2022-08-19T08:33:28;101021.20;;;24.10;55.40
55517;BME280;41724;51.176;-0.708;2022-08-19T08:35:55;101020.00;;;23.55;54.29
55517;BME280;41724;51.176;-0.708;2022-08-19T08:38:23;101023.60;;;22.28;56.90
55517;BME280;41724;51.176;-0.708;2022-08-19T08:40:52;101022.73;;;22.31;58.51
55517;BME280;41724;51.176;-0.708;2022-08-19T08:43:24;101023.90;;;21.86;58.00
55517;BME280;41724;51.176;-0.708;2022-08-19T08:45:59;101027.57;;;22.79;56.30
55517;BME280;41724;51.176;-0.708;2022-08-19T08:48:36;101023.02;;;23.27;55.28
55517;BME280;41724;51.176;-0.708;2022-08-19T08:51:09;101026.76;;;22.46;57.44
55517;BME280;41724;51.176;-0.708;2022-08-19T08:53:36;101027.12;;;22.31;56.71
55517;BME280;41724;51.176;-0.708;2022-08-19T08:56:06;101030.61;;;21.81;58.48
55517;BME280;41724;51.176;-0.708;2022-08-19T08:58:42;101029.35;;;22.46;57.79
55517;BME280;41724;51.176;-0.708;2022-08-19T09:01:12;101023.95;;;21.95;55.54
55517;BME280;41724;51.176;-0.708;2022-08-19T09:03:42;101012.72;;;22.88;55.72
55517;BME280;41724;51.176;-0.708;2022-08-19T09:06:14;101018.26;;;22.81;54.17
55517;BME280;41724;51.176;-0.708;2022-08-19T09:08:48;101017.87;;;22.79;54.30
55517;BME280;41724;51.176;-0.708;2022-08-19T09:11:33;101020.11;;;23.30;53.98
55517;BME280;41724;51.176;-0.708;2022-08-19T09:14:10;101014.61;;;23.92;52.26
55517;BME280;41724;51.176;-0.708;2022-08-19T09:16:40;101009.64;;;23.95;52.01
55517;BME280;41724;51.176;-0.708;2022-08-19T09:19:08;101013.35;;;23.30;49.96
55517;BME280;41724;51.176;-0.708;2022-08-19T09:21:35;101015.78;;;22.47;52.53
55517;BME280;41724;51.176;-0.708;2022-08-19T09:24:08;101015.64;;;23.14;51.57
55517;BME280;41724;51.176;-0.708;2022-08-19T09:26:35;101013.80;;;23.21;49.72
55517;BME280;41724;51.176;-0.708;2022-08-19T09:29:03;101011.47;;;23.40;49.27
55517;BME280;41724;51.176;-0.708;2022-08-19T09:31:31;101014.92;;;23.90;49.01
55517;BME280;41724;51.176;-0.708;2022-08-19T09:33:59;101017.26;;;23.63;48.33
55517;BME280;41724;51.176;-0.708;2022-08-19T09:36:27;101011.36;;;23.85;47.08
55517;BME280;41724;51.176;-0.708;2022-08-19T09:38:55;101011.54;;;23.89;47.61
55517;BME280;41724;51.176;-0.708;2022-08-19T09:41:24;101015.34;;;23.23;48.16
55517;BME280;41724;51.176;-0.708;2022-08-19T09:43:54;101016.66;;;23.22;49.31
55517;BME280;41724;51.176;-0.708;2022-08-19T09:46:22;101018.94;;;23.50;48.88
55517;BME280;41724;51.176;-0.708;2022-08-19T09:48:50;101021.67;;;23.93;47.96
55517;BME280;41724;51.176;-0.708;2022-08-19T09:51:20;101025.82;;;23.69;47.62
55517;BME280;41724;51.176;-0.708;2022-08-19T09:53:50;101025.51;;;24.71;46.01
55517;BME280;41724;51.176;-0.708;2022-08-19T09:56:19;101027.90;;;24.73;45.74
55517;BME280;41724;51.176;-0.708;2022-08-19T09:58:47;101030.44;;;24.21;46.65
55517;BME280;41724;51.176;-0.708;2022-08-19T10:01:17;101035.24;;;23.74;48.20
55517;BME280;41724;51.176;-0.708;2022-08-19T10:03:47;101030.09;;;24.43;49.50
55517;BME280;41724;51.176;-0.708;2022-08-19T10:06:15;101023.03;;;24.83;46.31
55517;BME280;41724;51.176;-0.708;2022-08-19T10:08:42;101024.84;;;25.03;46.24
55517;BME280;41724;51.176;-0.708;2022-08-19T10:11:09;101022.12;;;24.76;48.44
55517;BME280;41724;51.176;-0.708;2022-08-19T10:13:37;101026.46;;;23.43;49.72
55517;BME280;41724;51.176;-0.708;2022-08-19T10:16:06;101025.30;;;24.05;47.98
55517;BME280;41724;51.176;-0.708;2022-08-19T10:18:35;101022.39;;;23.92;49.05
55517;BME280;41724;51.176;-0.708;2022-08-19T10:21:06;101015.26;;;24.39;48.16
55517;BME280;41724;51.176;-0.708;2022-08-19T10:23:34;101028.14;;;24.91;45.71
55517;BME280;41724;51.176;-0.708;2022-08-19T10:26:02;101028.58;;;23.87;46.34
55517;BME280;41724;51.176;-0.708;2022-08-19T10:28:29;101023.67;;;24.96;45.52
55517;BME280;41724;51.176;-0.708;2022-08-19T10:30:56;101030.48;;;24.40;44.80
55517;BME280;41724;51.176;-0.708;2022-08-19T10:33:23;101037.14;;;24.11;45.99
55517;BME280;41724;51.176;-0.708;2022-08-19T10:36:00;101030.45;;;24.76;46.43
55517;BME280;41724;51.176;-0.708;2022-08-19T10:38:27;101031.01;;;25.45;44.00
55517;BME280;41724;51.176;-0.708;2022-08-19T10:40:55;101033.42;;;25.31;41.90
55517;BME280;41724;51.176;-0.708;2022-08-19T10:43:22;101035.04;;;25.71;43.10
55517;BME280;41724;51.176;-0.708;2022-08-19T10:45:52;101033.72;;;26.11;41.93
55517;BME280;41724;51.176;-0.708;2022-08-19T10:48:19;101036.76;;;24.49;41.92
55517;BME280;41724;51.176;-0.708;2022-08-19T10:50:46;101033.11;;;25.24;41.03
55517;BME280;41724;51.176;-0.708;2022-08-19T10:53:14;101035.87;;;25.57;41.57
55517;BME280;41724;51.176;-0.708;2022-08-19T10:55:44;101039.03;;;25.28;41.09
55517;BME280;41724;51.176;-0.708;2022-08-19T10:58:13;101039.57;;;25.51;40.00
55517;BME280;41724;51.176;-0.708;2022-08-19T11:00:41;101038.42;;;25.38;38.94
55517;BME280;41724;51.176;-0.708;2022-08-19T11:03:08;101053.39;;;23.68;41.49
55517;BME280;41724;51.176;-0.708;2022-08-19T11:05:36;101047.52;;;25.25;40.27
55517;BME280;41724;51.176;-0.708;2022-08-19T11:08:03;101050.73;;;25.70;39.99
55517;BME280;41724;51.176;-0.708;2022-08-19T11:10:30;101052.43;;;25.87;38.83
55517;BME280;41724;51.176;-0.708;2022-08-19T11:12:57;101052.99;;;25.14;40.54
55517;BME280;41724;51.176;-0.708;2022-08-19T11:15:24;101061.04;;;25.08;40.47
55517;BME280;41724;51.176;-0.708;2022-08-19T11:17:52;101066.62;;;24.34;40.45
55517;BME280;41724;51.176;-0.708;2022-08-19T11:20:19;101062.14;;;24.23;40.32
55517;BME280;41724;51.176;-0.708;2022-08-19T11:22:46;101062.97;;;25.13;41.73
55517;BME280;41724;51.176;-0.708;2022-08-19T11:25:13;101057.81;;;25.14;39.55
55517;BME280;41724;51.176;-0.708;2022-08-19T11:27:41;101058.64;;;24.91;39.29
55517;BME280;41724;51.176;-0.708;2022-08-19T11:30:10;101056.04;;;25.63;36.93
55517;BME280;41724;51.176;-0.708;2022-08-19T11:32:38;101051.71;;;25.64;35.11
55517;BME280;41724;51.176;-0.708;2022-08-19T11:35:06;101050.03;;;25.27;36.89
55517;BME280;41724;51.176;-0.708;2022-08-19T11:37:33;101055.00;;;25.29;36.95
55517;BME280;41724;51.176;-0.708;2022-08-19T11:40:00;101061.33;;;24.71;37.57
55517;BME280;41724;51.176;-0.708;2022-08-19T11:42:27;101057.67;;;25.58;37.34
55517;BME280;41724;51.176;-0.708;2022-08-19T11:44:55;101054.49;;;25.57;35.05
55517;BME280;41724;51.176;-0.708;2022-08-19T11:47:22;101050.59;;;26.14;35.16
55517;BME280;41724;51.176;-0.708;2022-08-19T11:49:49;101059.46;;;26.32;34.17
55517;BME280;41724;51.176;-0.708;2022-08-19T11:52:16;101059.44;;;26.51;33.72
55517;BME280;41724;51.176;-0.708;2022-08-19T11:54:45;101053.63;;;26.70;32.13
55517;BME280;41724;51.176;-0.708;2022-08-19T11:57:12;101050.19;;;26.17;33.17
55517;BME280;41724;51.176;-0.708;2022-08-19T11:59:39;101047.23;;;26.16;34.01
55517;BME280;41724;51.176;-0.708;2022-08-19T12:02:09;101052.30;;;26.83;33.70
55517;BME280;41724;51.176;-0.708;2022-08-19T12:04:36;101050.40;;;26.39;32.63
55517;BME280;41724;51.176;-0.708;2022-08-19T12:07:03;101050.68;;;25.72;32.26
55517;BME280;41724;51.176;-0.708;2022-08-19T12:09:30;101050.68;;;25.97;32.85
55517;BME280;41724;51.176;-0.708;2022-08-19T12:11:58;101046.65;;;26.20;33.05
55517;BME280;41724;51.176;-0.708;2022-08-19T12:14:25;101053.02;;;25.79;32.92
55517;BME280;41724;51.176;-0.708;2022-08-19T12:16:52;101051.71;;;25.50;32.79
55517;BME280;41724;51.176;-0.708;2022-08-19T12:19:20;101048.87;;;26.63;31.72
55517;BME280;41724;51.176;-0.708;2022-08-19T12:21:47;101051.60;;;26.54;32.70
55517;BME280;41724;51.176;-0.708;2022-08-19T12:24:15;101052.84;;;26.34;30.60
55517;BME280;41724;51.176;-0.708;2022-08-19T12:26:42;101052.63;;;26.43;30.84
55517;BME280;41724;51.176;-0.708;2022-08-19T12:29:09;101052.94;;;26.79;30.79
55517;BME280;41724;51.176;-0.708;2022-08-19T12:31:36;101043.90;;;27.25;29.18
55517;BME280;41724;51.176;-0.708;2022-08-19T12:34:04;101036.23;;;27.09;30.14
55517;BME280;41724;51.176;-0.708;2022-08-19T12:36:31;101032.38;;;27.78;30.29
55517;BME280;41724;51.176;-0.708;2022-08-19T12:38:59;101027.67;;;28.04;30.92
55517;BME280;41724;51.176;-0.708;2022-08-19T12:41:26;101031.22;;;27.95;29.70
55517;BME280;41724;51.176;-0.708;2022-08-19T12:43:53;101036.23;;;28.49;30.20
55517;BME280;41724;51.176;-0.708;2022-08-19T12:46:20;101025.23;;;27.90;27.16